Time;durP1;ratioP1;P1;durP2;ratioP2;P2;SDS_P1;SDS_P2;PMS_P1;PMS_P2;Temp;Humidity;BMP_temperature;BMP_pressure;BME280_temperature;BME280_humidity;BME280_pressure;Samples;Min_cycle;Max_cycle;Signal;HPM_P1;HPM_P2
2023/08/30 00:00:10;;;;;;;14.15;8.20;;;;;;;20.30;100.00;65117.00;5070819;28;20190;-52
2023/08/30 00:02:36;;;;;;;9.02;8.13;;;;;;;20.36;100.00;65120.53;5070750;28;20764;-53
2023/08/30 00:05:03;;;;;;;9.82;7.25;;;;;;;20.39;100.00;65126.41;5052288;28;20303;-55
2023/08/30 00:07:29;;;;;;;11.07;8.18;;;;;;;20.41;100.00;65128.63;5070183;28;20282;-56
2023/08/30 00:09:55;;;;;;;10.00;7.15;;;;;;;20.45;100.00;65136.16;5070185;28;20275;-55
2023/08/30 00:12:21;;;;;;;11.68;8.05;;;;;;;20.46;100.00;65134.16;5052220;28;20759;-52
2023/08/30 00:14:47;;;;;;;11.35;7.85;;;;;;;20.42;100.00;65132.81;5070495;28;20204;-55
2023/08/30 00:17:13;;;;;;;10.85;7.70;;;;;;;20.50;100.00;65139.09;5070596;28;20572;-52
2023/08/30 00:19:38;;;;;;;11.88;7.15;;;;;;;20.42;100.00;65129.72;5052192;28;20675;-52
2023/08/30 00:22:07;;;;;;;11.52;9.07;;;;;;;20.22;100.00;65108.16;5070502;28;20212;-52
2023/08/30 00:24:33;;;;;;;10.80;8.07;;;;;;;20.08;100.00;65095.25;5069941;28;20213;-52
2023/08/30 00:26:58;;;;;;;10.80;6.90;;;;;;;19.90;100.00;65075.91;5069946;28;20272;-52
2023/08/30 00:29:23;;;;;;;8.13;5.88;;;;;;;19.85;100.00;65067.84;5070045;28;20184;-55
2023/08/30 00:31:49;;;;;;;7.97;6.38;;;;;;;19.81;100.00;65065.97;5070144;28;20765;-61
2023/08/30 00:34:14;;;;;;;9.70;6.05;;;;;;;19.75;100.00;65056.81;5070178;28;20200;-53
2023/08/30 00:36:39;;;;;;;11.98;6.28;;;;;;;19.83;100.00;65065.63;5069794;28;20702;-54
2023/08/30 00:39:05;;;;;;;8.77;6.35;;;;;;;19.83;100.00;65068.19;5069986;28;20216;-52
2023/08/30 00:41:30;;;;;;;11.20;7.30;;;;;;;19.88;100.00;65073.16;5070098;28;20725;-52
2023/08/30 00:43:55;;;;;;;8.93;5.93;;;;;;;19.89;100.00;65072.25;5069036;28;20639;-51
2023/08/30 00:46:21;;;;;;;11.55;5.80;;;;;;;19.98;100.00;65079.63;5051676;28;20227;-51
2023/08/30 00:48:47;;;;;;;9.10;6.00;;;;;;;19.82;100.00;65063.97;5035264;28;20330;-52
2023/08/30 00:51:13;;;;;;;7.28;5.28;;;;;;;19.65;100.00;65040.66;5069705;28;20543;-56
2023/08/30 00:53:38;;;;;;;8.07;5.68;;;;;;;19.77;100.00;65061.56;5069792;28;20697;-52
2023/08/30 00:56:04;;;;;;;9.02;5.50;;;;;;;19.66;100.00;65046.28;5053439;28;20258;-53
2023/08/30 00:58:29;;;;;;;9.35;6.03;;;;;;;19.73;100.00;65054.59;5055236;28;20196;-56
2023/08/30 01:00:57;;;;;;;9.15;6.07;;;;;;;19.95;100.00;65080.88;5073108;28;20650;-55
2023/08/30 01:03:23;;;;;;;9.98;6.00;;;;;;;19.94;100.00;65080.34;5073282;28;20197;-55
2023/08/30 01:05:48;;;;;;;10.15;5.93;;;;;;;19.95;100.00;65078.88;5072975;28;20270;-53
2023/08/30 01:08:14;;;;;;;7.70;5.35;;;;;;;19.96;100.00;65076.88;5073400;28;20211;-54
2023/08/30 01:10:46;;;;;;;8.73;5.32;;;;;;;20.12;100.00;65096.56;5072941;28;20200;-52
2023/08/30 01:13:18;;;;;;;10.30;5.95;;;;;;;20.30;100.00;65116.47;5073299;28;20236;-53
2023/08/30 01:15:46;;;;;;;9.38;6.22;;;;;;;20.55;100.00;65144.09;5072930;28;20200;-54
2023/08/30 01:18:12;;;;;;;7.75;5.57;;;;;;;20.45;100.00;65130.47;5073041;28;20710;-55
2023/08/30 01:20:40;;;;;;;9.57;6.47;;;;;;;20.36;100.00;65123.09;5073066;28;20272;-53
2023/08/30 01:23:11;;;;;;;8.73;6.00;;;;;;;20.33;100.00;65122.34;5054664;28;20231;-51
2023/08/30 01:25:58;;;;;;;8.55;5.63;;;;;;;20.31;100.00;65117.56;5072620;28;20219;-53
2023/08/30 01:28:26;;;;;;;9.45;6.03;;;;;;;20.32;100.00;65118.69;5072720;28;20229;-52
2023/08/30 01:30:57;;;;;;;9.15;5.78;;;;;;;20.27;100.00;65113.16;5072641;28;20279;-52
2023/08/30 01:33:24;;;;;;;8.93;6.25;;;;;;;20.08;100.00;65093.25;5072712;28;20254;-51
2023/08/30 01:35:49;;;;;;;10.27;6.32;;;;;;;20.01;100.00;65084.97;5072692;28;20219;-52
2023/08/30 01:38:24;;;;;;;9.02;5.93;;;;;;;19.80;100.00;65061.75;5072557;28;20595;-52
2023/08/30 01:40:51;;;;;;;7.75;5.97;;;;;;;19.69;100.00;65050.19;5054755;28;20204;-53
2023/08/30 01:43:18;;;;;;;11.40;6.63;;;;;;;20.06;100.00;65093.03;5072478;28;20205;-52
2023/08/30 01:45:44;;;;;;;7.95;5.68;;;;;;;20.04;100.00;65088.25;5072222;28;20276;-52
2023/08/30 01:48:14;;;;;;;9.80;5.53;;;;;;;20.05;100.00;65089.38;5071368;28;20292;-52
2023/08/30 01:50:43;;;;;;;13.10;5.78;;;;;;;20.06;100.00;65093.59;5072849;28;20231;-52
2023/08/30 01:53:11;;;;;;;10.48;6.40;;;;;;;20.06;100.00;65090.47;5072414;28;20295;-52
2023/08/30 01:55:37;;;;;;;15.43;7.28;;;;;;;20.18;100.00;65100.63;5053440;28;20291;-52
2023/08/30 01:58:04;;;;;;;10.25;6.53;;;;;;;20.08;100.00;65093.25;5071092;28;20292;-54
2023/08/30 02:00:29;;;;;;;13.00;6.22;;;;;;;20.08;100.00;65093.25;5071940;28;20263;-52
2023/08/30 02:02:56;;;;;;;12.00;6.63;;;;;;;20.12;100.00;65096.56;5072288;28;20205;-52
2023/08/30 02:05:22;;;;;;;12.60;7.07;;;;;;;20.16;100.00;65100.97;5072187;28;20223;-52
2023/08/30 02:08:03;;;;;;;10.23;6.45;;;;;;;20.02;100.00;65083.50;5053653;28;20691;-52
2023/08/30 02:10:35;;;;;;;12.10;7.07;;;;;;;20.04;100.00;65093.94;5054120;28;20274;-52
2023/08/30 02:13:10;;;;;;;13.82;6.95;;;;;;;20.11;100.00;65096.00;5072724;28;20208;-55
2023/08/30 02:15:39;;;;;;;12.05;6.85;;;;;;;19.95;100.00;65078.34;5072535;28;20584;-55
2023/08/30 02:18:05;;;;;;;11.13;7.22;;;;;;;19.77;100.00;65059.00;5072549;28;20296;-55
2023/08/30 02:20:32;;;;;;;13.77;6.43;;;;;;;19.70;100.00;65048.72;5072140;28;20197;-54
2023/08/30 02:22:59;;;;;;;15.63;7.32;;;;;;;19.84;100.00;65063.63;5054081;28;20196;-54
2023/08/30 02:25:25;;;;;;;13.32;7.60;;;;;;;19.88;100.00;65073.69;5054122;28;20291;-56
2023/08/30 02:27:51;;;;;;;11.85;7.35;;;;;;;19.73;100.00;65054.59;5072092;28;20678;-56
2023/08/30 02:30:17;;;;;;;13.65;7.05;;;;;;;19.69;100.00;65049.63;5072093;28;20570;-59
2023/08/30 02:32:42;;;;;;;11.93;7.00;;;;;;;19.71;100.00;65054.38;5075011;28;20228;-53
2023/08/30 02:35:08;;;;;;;10.93;7.50;;;;;;;19.85;100.00;65067.84;5055877;28;20197;-52
2023/08/30 02:37:34;;;;;;;10.15;6.75;;;;;;;19.75;100.00;65056.81;5074481;28;20653;-53
2023/08/30 02:40:09;;;;;;;12.48;6.95;;;;;;;19.77;100.00;65058.44;5073676;28;20169;-54
2023/08/30 02:42:37;;;;;;;11.13;7.00;;;;;;;19.65;100.00;65047.75;5053526;28;20299;-54
2023/08/30 02:45:03;;;;;;;13.98;8.38;;;;;;;19.54;100.00;65031.03;5071720;28;20626;-58
2023/08/30 02:47:28;;;;;;;12.23;6.97;;;;;;;19.53;100.00;65029.41;5071717;28;20205;-54
2023/08/30 02:49:53;;;;;;;11.18;7.05;;;;;;;19.69;100.00;65050.19;5071896;28;20193;-53
2023/08/30 02:52:19;;;;;;;10.45;7.18;;;;;;;19.77;100.00;65056.44;5071694;28;20223;-53
2023/08/30 02:54:44;;;;;;;11.05;7.65;;;;;;;19.69;100.00;65050.19;5053795;28;20215;-54
2023/08/30 02:57:10;;;;;;;9.27;7.70;;;;;;;19.66;100.00;65049.41;5071968;28;20678;-54
2023/08/30 02:59:35;;;;;;;14.48;7.53;;;;;;;19.60;100.00;65040.22;5071709;28;20199;-54
2023/08/30 03:02:01;;;;;;;14.93;7.90;;;;;;;19.63;100.00;65046.09;5071424;28;20292;-57
2023/08/30 03:04:27;;;;;;;12.05;7.85;;;;;;;19.55;100.00;65037.28;5071466;28;20657;-54
2023/08/30 03:06:52;;;;;;;14.50;7.75;;;;;;;19.44;100.00;65022.56;5071567;28;20227;-54
2023/08/30 03:09:18;;;;;;;10.65;7.55;;;;;;;19.25;100.00;65004.66;5071544;28;20563;-53
2023/08/30 03:11:44;;;;;;;10.82;8.23;;;;;;;19.24;100.00;65000.47;5071251;28;20216;-54
2023/08/30 03:14:10;;;;;;;13.35;7.85;;;;;;;19.26;100.00;65005.78;5071355;28;20216;-57
2023/08/30 03:16:35;;;;;;;13.57;7.50;;;;;;;19.25;100.00;65004.09;5071411;28;20701;-54
2023/08/30 03:19:02;;;;;;;10.93;7.38;;;;;;;19.34;100.00;65014.06;5070246;28;20251;-54
2023/08/30 03:21:28;;;;;;;9.15;7.15;;;;;;;19.33;100.00;65010.44;5071397;28;20235;-53
2023/08/30 03:23:53;;;;;;;11.98;7.25;;;;;;;19.50;100.00;65028.63;5071258;28;20691;-53
2023/08/30 03:26:18;;;;;;;12.73;8.07;;;;;;;19.35;100.00;65012.06;5070998;28;20264;-54
2023/08/30 03:28:44;;;;;;;10.77;7.57;;;;;;;19.46;100.00;65021.66;5053033;28;20736;-54
2023/08/30 03:31:18;;;;;;;9.38;7.18;;;;;;;19.46;100.00;65027.31;5070893;28;20207;-57
2023/08/30 03:33:44;;;;;;;11.18;7.93;;;;;;;19.44;100.00;65025.13;5070972;28;20746;-56
2023/08/30 03:36:12;;;;;;;12.27;7.13;;;;;;;19.43;100.00;65020.91;5071063;28;20205;-54
2023/08/30 03:38:38;;;;;;;12.43;8.48;;;;;;;19.37;100.00;65016.84;5070907;28;20219;-54
2023/08/30 03:41:04;;;;;;;13.60;10.05;;;;;;;19.34;100.00;65011.53;5070860;28;20199;-54
2023/08/30 03:43:31;;;;;;;10.18;7.82;;;;;;;19.35;100.00;65009.53;5072134;28;20201;-52
2023/08/30 03:46:01;;;;;;;9.30;7.03;;;;;;;19.52;100.00;65030.84;5071240;28;20197;-55
2023/08/30 03:48:27;;;;;;;8.60;5.75;;;;;;;20.26;100.00;65112.06;5071519;28;20291;-54
2023/08/30 03:50:54;;;;;;;8.20;7.30;;;;;;;20.49;100.00;65140.00;5072745;28;20196;-55
2023/08/30 03:53:20;;;;;;;12.48;7.57;;;;;;;20.39;100.00;65126.97;5070999;28;20213;-53
2023/08/30 03:55:46;;;;;;;13.73;8.10;;;;;;;20.11;100.00;65096.00;5053757;28;20754;-53
2023/08/30 03:58:11;;;;;;;13.38;6.97;;;;;;;19.88;100.00;65068.59;5071113;28;20204;-53
2023/08/30 04:00:38;;;;;;;7.85;6.60;;;;;;;19.77;100.00;65059.00;5071423;28;20188;-56
2023/08/30 04:03:11;;;;;;;14.07;7.22;;;;;;;19.77;100.00;65058.44;5072160;28;20215;-53
2023/08/30 04:05:37;;;;;;;8.98;6.40;;;;;;;19.47;100.00;65025.88;5071018;28;20662;-52
2023/08/30 04:08:05;;;;;;;11.23;6.47;;;;;;;19.53;100.00;65034.50;5071066;28;20303;-55
2023/08/30 04:10:36;;;;;;;8.25;6.22;;;;;;;19.86;100.00;65068.94;5070766;28;20201;-54
2023/08/30 04:13:02;;;;;;;13.93;7.38;;;;;;;19.86;100.00;65068.94;5052923;28;20205;-54
2023/08/30 04:15:27;;;;;;;11.10;7.15;;;;;;;19.78;100.00;65060.09;5071184;28;20259;-55
2023/08/30 04:17:53;;;;;;;14.07;7.05;;;;;;;19.78;100.00;65062.66;5070635;28;20698;-55
2023/08/30 04:20:18;;;;;;;9.85;7.43;;;;;;;19.90;100.00;65072.78;5070473;28;20201;-55
2023/08/30 04:22:43;;;;;;;11.63;7.82;;;;;;;20.07;100.00;65089.03;5070224;28;20798;-54
2023/08/30 04:25:09;;;;;;;11.10;7.03;;;;;;;20.09;100.00;65093.78;5070554;28;20220;-54
2023/08/30 04:27:35;;;;;;;11.45;6.82;;;;;;;20.42;100.00;65130.25;5070427;28;20216;-56
2023/08/30 04:30:02;;;;;;;10.98;6.25;;;;;;;20.92;100.00;65182.44;5070157;28;20339;-52
2023/08/30 04:32:28;;;;;;;8.75;5.82;;;;;;;21.07;100.00;65201.59;5069945;28;20288;-53
2023/08/30 04:34:53;;;;;;;11.98;5.63;;;;;;;21.00;100.00;65191.28;5070621;28;20208;-54
2023/08/30 04:37:19;;;;;;;10.50;6.18;;;;;;;20.65;100.00;65155.13;5070941;28;20201;-53
2023/08/30 04:39:48;;;;;;;8.45;6.18;;;;;;;20.60;100.00;65150.19;5070807;28;20295;-53
2023/08/30 04:42:14;;;;;;;7.65;6.00;;;;;;;20.73;100.00;65163.97;5070358;28;20213;-54
2023/08/30 04:44:39;;;;;;;8.45;6.53;;;;;;;20.61;100.00;65150.72;5071082;28;20231;-54
2023/08/30 04:47:05;;;;;;;9.40;6.40;;;;;;;20.44;100.00;65131.94;5071019;28;20212;-53
2023/08/30 04:49:30;;;;;;;8.05;5.47;;;;;;;20.35;100.00;65122.53;5070152;28;20197;-56
2023/08/30 04:51:56;;;;;;;9.60;5.80;;;;;;;20.25;100.00;65108.38;5070113;28;20225;-54
2023/08/30 04:54:22;;;;;;;7.55;5.95;;;;;;;20.42;100.00;65127.72;5070616;28;20270;-54
2023/08/30 04:56:48;;;;;;;9.93;6.57;;;;;;;20.77;100.00;65165.84;5071849;28;20209;-55
2023/08/30 04:59:14;;;;;;;11.32;6.65;;;;;;;21.10;100.00;65201.78;5070572;28;20276;-53
2023/08/30 05:01:42;;;;;;;9.48;5.75;;;;;;;21.08;100.00;65200.13;5052582;28;20222;-53
2023/08/30 05:04:07;;;;;;;8.77;6.38;;;;;;;21.10;100.00;65202.34;5070622;28;20249;-53
2023/08/30 05:06:33;;;;;;;10.05;5.78;;;;;;;21.33;100.00;65230.34;5070372;28;20237;-55
2023/08/30 05:08:58;;;;;;;8.50;6.57;;;;;;;21.54;100.00;65251.00;5071589;28;20258;-54
2023/08/30 05:11:24;;;;;;;33.97;19.73;;;;;;;21.49;100.00;65247.50;5070741;28;20224;-54
2023/08/30 05:13:50;;;;;;;7.43;6.25;;;;;;;21.61;100.00;65261.31;5070119;28;20329;-54
2023/08/30 05:16:15;;;;;;;13.88;7.25;;;;;;;21.30;100.00;65223.91;5052077;28;20215;-54
2023/08/30 05:18:41;;;;;;;9.00;6.53;;;;;;;20.78;100.00;65170.06;5069794;28;20670;-53
2023/08/30 05:21:06;;;;;;;9.75;6.65;;;;;;;20.49;100.00;65137.44;5069971;28;20204;-52
2023/08/30 05:23:31;;;;;;;10.35;6.20;;;;;;;20.63;100.00;65150.91;5070107;28;20832;-53
2023/08/30 05:25:57;;;;;;;13.40;6.53;;;;;;;20.92;100.00;65182.44;5069818;28;20685;-53
2023/08/30 05:28:22;;;;;;;11.82;6.72;;;;;;;20.86;100.00;65173.22;5069704;28;20215;-54
2023/08/30 05:30:49;;;;;;;10.18;6.65;;;;;;;20.79;100.00;65170.59;5069783;28;20201;-54
2023/08/30 05:33:15;;;;;;;14.27;7.65;;;;;;;20.48;100.00;65133.81;5069604;28;20185;-55
2023/08/30 05:35:41;;;;;;;11.88;6.78;;;;;;;20.22;100.00;65108.16;5067958;28;20192;-54
2023/08/30 05:38:14;;;;;;;18.90;6.80;;;;;;;20.26;100.00;65112.59;5049387;28;20223;-55
2023/08/30 05:40:47;;;;;;;12.00;7.72;;;;;;;20.43;100.00;65131.38;5050227;28;20209;-52
2023/08/30 05:43:13;;;;;;;10.43;7.43;;;;;;;20.45;100.00;65136.16;5072069;28;20196;-53
2023/08/30 05:45:38;;;;;;;14.32;7.60;;;;;;;20.31;100.00;65117.56;5073308;28;20596;-57
2023/08/30 05:48:05;;;;;;;11.73;7.50;;;;;;;20.18;100.00;65100.63;5072758;28;20278;-52
2023/08/30 05:50:31;;;;;;;13.30;7.97;;;;;;;20.14;100.00;65099.31;5073015;28;20283;-54
2023/08/30 05:52:56;;;;;;;9.48;7.75;;;;;;;20.20;100.00;65105.97;5072559;28;20276;-54
2023/08/30 05:55:22;;;;;;;11.50;7.85;;;;;;;20.18;100.00;65103.19;5072662;28;20231;-52
2023/08/30 05:57:47;;;;;;;14.27;7.68;;;;;;;20.12;100.00;65096.56;5073136;28;20209;-53
2023/08/30 06:00:13;;;;;;;10.80;7.60;;;;;;;20.15;100.00;65100.44;5072565;28;20272;-53
2023/08/30 06:02:40;;;;;;;14.10;7.43;;;;;;;20.31;100.00;65117.56;5067808;28;20657;-53
2023/08/30 06:05:06;;;;;;;10.65;7.85;;;;;;;20.50;100.00;65136.53;5072328;28;20307;-53
2023/08/30 06:07:32;;;;;;;11.48;8.32;;;;;;;20.47;100.00;65135.25;5071251;28;20706;-52
2023/08/30 06:09:57;;;;;;;13.55;7.65;;;;;;;20.82;100.00;65174.50;5072262;28;20197;-53
2023/08/30 06:12:23;;;;;;;11.68;7.40;;;;;;;21.23;100.00;65219.28;5072657;28;20708;-53
2023/08/30 06:14:52;;;;;;;14.48;7.80;;;;;;;21.32;100.00;65228.69;5072326;28;20292;-56
2023/08/30 06:17:18;;;;;;;12.20;8.30;;;;;;;21.12;100.00;65204.56;5072547;28;20323;-52
2023/08/30 06:19:45;;;;;;;15.23;8.20;;;;;;;20.84;100.00;65176.16;5054428;28;20197;-55
2023/08/30 06:22:11;;;;;;;9.80;5.38;;;;;;;20.81;100.00;65175.38;5072340;28;20291;-55
2023/08/30 06:24:36;;;;;;;12.23;5.78;;;;;;;20.97;100.00;65187.41;5072976;28;20312;-52
2023/08/30 06:27:02;;;;;;;10.30;5.72;;;;;;;21.21;100.00;65216.53;5072348;28;20209;-54
2023/08/30 06:29:28;;;;;;;13.90;5.88;;;;;;;21.35;98.13;65229.97;5072794;28;20199;-52
2023/08/30 06:31:53;;;;;;;10.63;6.03;;;;;;;21.15;100.00;65210.44;5072714;28;20731;-54
2023/08/30 06:34:18;;;;;;;11.02;6.65;;;;;;;21.23;100.00;65216.72;5072345;28;20209;-53
2023/08/30 06:36:44;;;;;;;12.70;6.78;;;;;;;21.28;100.00;65224.81;5072053;28;20278;-55
2023/08/30 06:39:10;;;;;;;14.27;7.28;;;;;;;21.34;100.00;65228.34;5071953;28;20269;-57
2023/08/30 06:41:36;;;;;;;9.10;5.65;;;;;;;21.29;100.00;65225.38;5072602;28;20213;-55
2023/08/30 06:44:02;;;;;;;12.13;6.78;;;;;;;21.36;100.00;65233.09;5071925;28;20219;-56
2023/08/30 06:46:27;;;;;;;9.70;6.60;;;;;;;21.71;100.00;65269.81;5071778;28;20307;-55
2023/08/30 06:48:52;;;;;;;10.32;6.35;;;;;;;22.16;100.00;65318.53;5071688;28;20219;-56
2023/08/30 06:51:18;;;;;;;10.20;6.18;;;;;;;22.29;100.00;65333.47;5071805;28;20569;-55
2023/08/30 06:53:43;;;;;;;10.02;6.07;;;;;;;22.47;99.61;65352.84;5071656;28;20603;-58
2023/08/30 06:56:09;;;;;;;11.57;7.18;;;;;;;22.53;96.88;65359.47;5071502;28;20211;-56
2023/08/30 06:58:36;;;;;;;11.05;5.68;;;;;;;22.63;95.73;65370.00;5071885;28;20197;-53
2023/08/30 07:01:03;;;;;;;14.13;6.75;;;;;;;22.62;92.46;65368.91;5053271;28;20185;-52
2023/08/30 07:03:28;;;;;;;10.10;5.95;;;;;;;22.39;91.73;65347.09;5053543;28;20204;-53
2023/08/30 07:05:54;;;;;;;10.57;6.30;;;;;;;22.24;98.99;65329.94;5071394;28;20215;-53
2023/08/30 07:08:19;;;;;;;7.10;4.63;;;;;;;22.46;85.75;65351.75;5071955;28;20204;-53
2023/08/30 07:10:45;;;;;;;6.40;4.43;;;;;;;22.51;90.00;65357.25;5071438;28;20204;-56
2023/08/30 07:13:11;;;;;;;7.53;4.43;;;;;;;22.69;87.81;65377.22;5071724;28;20201;-52
2023/08/30 07:15:39;;;;;;;8.10;4.25;;;;;;;22.87;79.10;65397.16;5071172;28;20560;-53
2023/08/30 07:18:05;;;;;;;5.18;3.80;;;;;;;22.84;74.96;65395.84;5071632;28;20216;-52
2023/08/30 07:20:31;;;;;;;10.70;3.92;;;;;;;22.90;74.25;65400.47;5071462;28;20208;-52
2023/08/30 07:22:56;;;;;;;6.25;4.32;;;;;;;22.84;79.95;65390.69;5071063;28;20222;-52
2023/08/30 07:25:22;;;;;;;7.40;4.18;;;;;;;22.97;83.47;65407.66;5071267;28;20763;-51
2023/08/30 07:27:48;;;;;;;8.27;4.80;;;;;;;23.19;82.29;65434.63;5071615;28;20315;-53
2023/08/30 07:30:14;;;;;;;9.35;4.25;;;;;;;23.27;72.99;65443.47;5070806;28;20197;-52
2023/08/30 07:32:40;;;;;;;5.40;4.05;;;;;;;23.28;73.43;65439.44;5046387;28;20307;-52
2023/08/30 07:35:06;;;;;;;8.30;5.32;;;;;;;23.30;75.27;65444.78;5070932;28;20231;-53
2023/08/30 07:37:32;;;;;;;8.13;4.45;;;;;;;23.43;74.55;65458.66;5069570;28;20728;-52
2023/08/30 07:39:57;;;;;;;9.07;5.10;;;;;;;23.66;76.55;65481.56;5070739;28;20197;-53
2023/08/30 07:42:22;;;;;;;11.20;4.93;;;;;;;23.65;76.04;65479.91;5069946;28;20212;-56
2023/08/30 07:44:48;;;;;;;9.73;5.82;;;;;;;23.76;72.28;65492.66;5069847;28;20220;-55
2023/08/30 07:47:13;;;;;;;8.70;4.28;;;;;;;23.75;73.19;65493.56;5070973;28;20307;-52
2023/08/30 07:49:39;;;;;;;7.93;4.47;;;;;;;23.78;75.72;65496.88;5071071;28;20270;-54
2023/08/30 07:52:05;;;;;;;8.15;5.28;;;;;;;24.03;72.55;65522.59;5078176;22;20253;-56
2023/08/30 07:54:31;;;;;;;12.10;5.97;;;;;;;24.08;77.68;65530.16;5070771;28;20201;-56
2023/08/30 07:56:57;;;;;;;5.88;4.53;;;;;;;23.77;74.57;65496.34;5061575;28;20219;-52
2023/08/30 07:59:23;;;;;;;9.05;6.50;;;;;;;23.45;74.27;65460.31;5051499;28;20217;-54
2023/08/30 08:01:48;;;;;;;10.73;6.75;;;;;;;23.77;74.73;65493.19;5050640;28;20709;-54
2023/08/30 08:04:15;;;;;;;11.90;5.28;;;;;;;24.08;71.83;65530.16;5050262;28;20726;-53
2023/08/30 08:06:40;;;;;;;13.00;5.15;;;;;;;24.09;69.36;65531.28;5050862;28;20209;-52
2023/08/30 08:09:07;;;;;;;10.07;4.75;;;;;;;24.00;65.84;65521.25;5050664;28;20204;-53
2023/08/30 08:11:33;;;;;;;10.80;5.00;;;;;;;24.14;73.29;65536.81;5050643;28;20202;-52
2023/08/30 08:13:59;;;;;;;10.75;5.13;;;;;;;24.34;71.89;65558.97;5051143;28;20177;-55
2023/08/30 08:16:24;;;;;;;12.18;6.63;;;;;;;24.41;77.31;65566.75;5050678;28;20232;-53
2023/08/30 08:18:51;;;;;;;8.73;5.40;;;;;;;24.63;74.79;65593.72;5051051;28;20198;-53
2023/08/30 08:21:17;;;;;;;8.48;5.47;;;;;;;24.79;77.49;65608.91;5050570;28;20219;-55
2023/08/30 08:23:43;;;;;;;9.23;5.70;;;;;;;25.00;76.93;65629.09;5050391;28;20225;-57
2023/08/30 08:26:09;;;;;;;8.32;5.18;;;;;;;25.22;74.87;65656.09;5033057;28;20710;-55
2023/08/30 08:28:34;;;;;;;7.75;4.93;;;;;;;25.33;71.39;65668.28;5050301;28;20230;-53
2023/08/30 08:31:00;;;;;;;7.82;5.10;;;;;;;25.40;70.54;65675.50;5050231;28;20355;-54
2023/08/30 08:33:26;;;;;;;8.63;6.07;;;;;;;25.51;70.61;65687.75;5050449;28;20198;-55
2023/08/30 08:35:52;;;;;;;9.73;5.13;;;;;;;25.42;68.23;65678.31;5049427;28;20216;-56
2023/08/30 08:38:18;;;;;;;9.48;5.03;;;;;;;25.45;71.10;65681.63;5050217;28;20193;-55
2023/08/30 08:40:43;;;;;;;9.00;4.72;;;;;;;25.62;72.00;65697.34;5050153;28;20198;-55
2023/08/30 08:43:12;;;;;;;8.75;4.45;;;;;;;25.58;67.47;65695.50;5050510;28;20227;-54
2023/08/30 08:45:38;;;;;;;14.45;6.97;;;;;;;25.83;70.71;65720.69;5050009;28;20296;-54
2023/08/30 08:48:04;;;;;;;8.48;4.03;;;;;;;25.78;63.30;65720.84;5049934;28;20248;-59
2023/08/30 08:50:30;;;;;;;7.13;4.20;;;;;;;25.72;61.05;65713.63;5048663;28;20366;-53
2023/08/30 08:52:57;;;;;;;7.28;4.90;;;;;;;25.97;63.35;65738.81;5049935;28;20243;-55
2023/08/30 08:55:23;;;;;;;7.15;4.40;;;;;;;25.97;59.46;65738.81;5050518;28;20236;-53
2023/08/30 08:57:49;;;;;;;6.25;4.75;;;;;;;26.06;61.65;65748.78;5050914;28;20268;-56
2023/08/30 09:00:16;;;;;;;7.00;3.40;;;;;;;26.13;59.84;65756.03;5050371;28;20205;-53
2023/08/30 09:02:42;;;;;;;6.05;3.53;;;;;;;26.19;59.74;65763.25;5049931;28;20220;-52
2023/08/30 09:05:10;;;;;;;7.13;3.75;;;;;;;26.44;62.50;65788.44;5049709;28;20221;-53
2023/08/30 09:07:37;;;;;;;9.32;4.35;;;;;;;26.42;60.35;65786.22;5032502;28;20694;-54
2023/08/30 09:10:03;;;;;;;8.65;3.63;;;;;;;26.72;55.95;65821.06;5050223;28;20284;-52
2023/08/30 09:12:32;;;;;;;8.77;5.13;;;;;;;26.70;55.68;65819.38;5049573;28;20758;-56
2023/08/30 09:14:58;;;;;;;8.25;5.25;;;;;;;26.41;53.68;65784.56;5050497;28;20217;-53
2023/08/30 09:17:24;;;;;;;6.07;3.50;;;;;;;26.78;55.62;65827.72;5052001;28;20593;-52
2023/08/30 09:19:50;;;;;;;6.18;3.47;;;;;;;26.96;52.80;65847.72;5053743;28;20209;-55
2023/08/30 09:22:15;;;;;;;9.00;5.45;;;;;;;26.63;56.59;65812.16;5053534;28;20217;-54
2023/08/30 09:24:41;;;;;;;10.38;7.38;;;;;;;26.54;54.59;65802.13;5053319;28;20217;-53
2023/08/30 09:27:07;;;;;;;8.38;3.72;;;;;;;26.95;54.83;65847.16;5053728;28;20216;-54
2023/08/30 09:29:33;;;;;;;7.43;4.45;;;;;;;27.07;58.48;65857.38;5053186;28;20201;-53
2023/08/30 09:32:01;;;;;;;3.85;3.10;;;;;;;27.27;54.85;65880.16;5053613;28;20278;-53
2023/08/30 09:34:27;;;;;;;6.63;3.80;;;;;;;26.30;54.52;65774.94;5053396;28;20655;-54
2023/08/30 09:36:53;;;;;;;6.63;4.15;;;;;;;26.48;52.88;65795.47;5053558;28;20245;-57
2023/08/30 09:39:19;;;;;;;7.75;4.18;;;;;;;26.30;57.03;65772.88;5052745;28;20209;-56
2023/08/30 09:41:48;;;;;;;5.95;4.32;;;;;;;26.68;56.05;65814.00;5053186;28;20569;-55
2023/08/30 09:44:16;;;;;;;9.95;6.78;;;;;;;26.90;52.85;65835.88;5053163;28;20225;-54
2023/08/30 09:46:42;;;;;;;5.70;3.42;;;;;;;27.38;50.73;65894.44;5052613;28;20217;-54
2023/08/30 09:49:09;;;;;;;6.18;4.13;;;;;;;27.64;50.08;65920.75;5052165;28;20216;-53
2023/08/30 09:51:37;;;;;;;8.30;3.90;;;;;;;27.70;48.31;65929.47;5052020;28;20221;-52
2023/08/30 09:54:05;;;;;;;5.38;3.65;;;;;;;27.52;49.67;65906.84;5052311;28;20574;-61
2023/08/30 09:56:36;;;;;;;8.77;3.72;;;;;;;27.97;50.18;65957.50;5053312;28;20209;-55
2023/08/30 09:59:03;;;;;;;4.47;3.40;;;;;;;28.33;49.23;65999.56;5052824;28;20202;-56
2023/08/30 10:01:29;;;;;;;5.03;3.70;;;;;;;28.61;48.53;66030.75;5052595;28;20296;-54
2023/08/30 10:03:57;;;;;;;6.90;4.30;;;;;;;28.61;50.86;66028.16;5032948;28;20300;-53
2023/08/30 10:06:24;;;;;;;7.65;3.83;;;;;;;29.09;49.90;66080.50;5052350;28;20213;-55
2023/08/30 10:08:52;;;;;;;9.00;4.20;;;;;;;28.68;47.67;66038.00;5052634;28;20178;-55
2023/08/30 10:11:18;;;;;;;7.85;3.70;;;;;;;29.32;49.65;66104.06;5052324;28;20866;-55
2023/08/30 10:13:45;;;;;;;7.95;4.15;;;;;;;29.76;47.36;66152.53;5052311;28;20237;-55
2023/08/30 10:16:19;;;;;;;9.60;7.50;;;;;;;29.55;47.66;66132.28;5052298;28;20305;-56
2023/08/30 10:18:52;;;;;;;27.73;21.48;;;;;;;28.92;46.77;66062.13;5052997;28;20255;-54
2023/08/30 10:21:21;;;;;;;10.68;6.68;;;;;;;28.59;47.19;66031.13;5052600;28;20290;-55
2023/08/30 10:23:55;;;;;;;6.93;3.88;;;;;;;29.26;45.52;66100.00;5052424;28;20259;-55
2023/08/30 10:26:32;;;;;;;5.93;4.18;;;;;;;29.45;44.50;66118.00;5034446;28;20220;-55
2023/08/30 10:29:01;;;;;;;8.57;5.20;;;;;;;29.83;45.20;66165.53;5033742;28;20382;-52
2023/08/30 10:31:28;;;;;;;20.63;15.43;;;;;;;29.57;46.12;66133.97;5052121;28;20213;-52
2023/08/30 10:33:54;;;;;;;9.00;5.05;;;;;;;29.36;46.30;66116.31;5052291;28;20284;-53
2023/08/30 10:36:23;;;;;;;5.95;4.38;;;;;;;29.37;44.62;66112.22;5052363;28;20205;-56
2023/08/30 10:38:50;;;;;;;6.75;4.47;;;;;;;29.45;44.62;66123.19;5051984;28;20209;-52
2023/08/30 10:41:26;;;;;;;14.25;9.38;;;;;;;29.18;45.04;66090.53;5051793;28;20231;-53
2023/08/30 10:43:55;;;;;;;9.43;6.70;;;;;;;28.86;46.02;66058.59;5034039;28;20228;-52
2023/08/30 10:46:34;;;;;;;14.40;11.18;;;;;;;28.40;46.88;66006.81;5050717;28;20594;-51
2023/08/30 10:49:15;;;;;;;9.93;7.95;;;;;;;28.10;48.18;65973.97;5052081;28;20201;-53
2023/08/30 10:51:41;;;;;;;6.28;4.25;;;;;;;27.95;47.98;65960.44;5052315;28;20697;-55
2023/08/30 10:54:15;;;;;;;7.03;4.70;;;;;;;27.71;48.64;65930.59;5052143;28;20216;-53
2023/08/30 10:56:59;;;;;;;8.60;5.32;;;;;;;28.20;47.48;65983.06;5051836;28;20228;-53
2023/08/30 10:59:24;;;;;;;10.18;7.30;;;;;;;28.28;49.65;65990.88;5051557;28;20197;-52
2023/08/30 11:01:55;;;;;;;9.05;4.75;;;;;;;28.59;47.51;66022.78;5051673;28;20275;-53
2023/08/30 11:04:22;;;;;;;6.20;4.65;;;;;;;29.49;44.61;66128.19;5051321;28;20212;-53
2023/08/30 11:06:51;;;;;;;9.35;5.13;;;;;;;29.45;44.13;66121.13;5033937;28;20209;-53
2023/08/30 11:09:19;;;;;;;9.93;6.80;;;;;;;29.39;44.29;66114.47;5034303;28;20205;-53
2023/08/30 11:11:50;;;;;;;10.20;8.98;;;;;;;28.39;45.59;66005.69;5051973;28;20201;-54
2023/08/30 11:14:25;;;;;;;30.30;22.50;;;;;;;28.54;47.39;66019.78;5050831;28;20215;-54
2023/08/30 11:16:53;;;;;;;25.20;20.63;;;;;;;29.01;45.75;66072.13;5033726;28;20227;-53
2023/08/30 11:19:22;;;;;;;7.90;5.20;;;;;;;29.18;45.47;66090.53;5051850;28;20193;-54
2023/08/30 11:21:48;;;;;;;5.32;4.47;;;;;;;29.96;44.90;66179.47;5049716;28;20242;-53